This is the latest recevied weather packets stored in our database for station/object K2RMB. If no packets are shown the sender has not sent any weather packets the latest 1 day(s).
| Time | Temp. | Humidity | Pressure | Rain* | Wind** | Luminosity | Snow |
|---|---|---|---|---|---|---|---|
| 1778024148 | 16.67° C | 84% | 1008.6 hPa | 0 mm | 0 m/s | 1 W/m² | - |
| 1778023845 | 16.67° C | 83% | 1008.6 hPa | 0 mm | 0 m/s | 2 W/m² | - |
| 1778023543 | 16.67° C | 83% | 1009 hPa | 0 mm | 0 m/s | 2 W/m² | - |
| 1778023240 | 16.67° C | 85% | 1008.6 hPa | 0 mm | 0 m/s | 3 W/m² | - |
| 1778022937 | 16.67° C | 81% | 1008.6 hPa | 0 mm | 0.89 m/s, 132° | 7 W/m² | - |
| 1778022636 | 16.67° C | 85% | 1008.6 hPa | 0 mm | 0 m/s | 8 W/m² | - |
| 1778022333 | 16.67° C | 85% | 1009 hPa | 0 mm | 0 m/s | 11 W/m² | - |
| 1778022029 | 17.22° C | 84% | 1009.3 hPa | 0 mm | 0 m/s | 15 W/m² | - |
| 1778021726 | 17.22° C | 82% | 1009 hPa | 0.25 mm | 0 m/s | 24 W/m² | - |
| 1778021422 | 16.67° C | 82% | 1009 hPa | 0.25 mm | 0 m/s | 19 W/m² | - |
| 1778021119 | 17.22° C | 84% | 1009.3 hPa | 0.25 mm | 0 m/s | 19 W/m² | - |
| 1778020817 | 17.22° C | 77% | 1009 hPa | 0.25 mm | 0 m/s | 9 W/m² | - |
| 1778020514 | 17.78° C | 78% | 1009 hPa | 0.25 mm | 0.89 m/s, 132° | 10 W/m² | - |
| 1778020216 | 17.78° C | 71% | 1009 hPa | 0.25 mm | 1.34 m/s, 132° | 12 W/m² | - |
| 1778019906 | 17.22° C | 76% | 1009 hPa | 0.25 mm | 0.89 m/s, 132° | 17 W/m² | - |
| 1778019602 | 17.78° C | 74% | 1008.6 hPa | 0.25 mm | 0.45 m/s, 132° | 17 W/m² | - |
| 1778019299 | 17.78° C | 74% | 1008.3 hPa | 0.25 mm | 2.68 m/s, 132° | 17 W/m² | - |
| 1778018996 | 18.89° C | 71% | 1008.3 hPa | 0 mm | 1.34 m/s, 132° | 27 W/m² | - |
| 1778018693 | 18.89° C | 68% | 1008 hPa | 0 mm | 1.79 m/s, 132° | 29 W/m² | - |
| 1778018391 | 20.56° C | 60% | 1007.3 hPa | 0 mm | 1.79 m/s, 132° | 33 W/m² | - |
| 1778018089 | 21.11° C | 57% | 1007.3 hPa | 0 mm | 2.68 m/s, 138° | 20 W/m² | - |
| 1778017786 | 23.89° C | 41% | 1006.5 hPa | 0 mm | 6.26 m/s, 108° | 19 W/m² | - |
| 1778017484 | 24.44° C | 36% | 1006.5 hPa | 0 mm | 1.34 m/s, 78° | 22 W/m² | - |
| 1778017181 | 24.44° C | 38% | 1006.2 hPa | 0 mm | 1.34 m/s, 84° | 21 W/m² | - |
| 1778016879 | 24.44° C | 38% | 1006.2 hPa | 0 mm | 0.89 m/s, 84° | 31 W/m² | - |
* Rain latest hour (hover to see other rain measurements)
** Current wind speed in m/s (hover to see current wind gust speed)